Time;durP1;ratioP1;P1;durP2;ratioP2;P2;SDS_P1;SDS_P2;PMS_P1;PMS_P2;Temp;Humidity;BMP_temperature;BMP_pressure;BME280_temperature;BME280_humidity;BME280_pressure;Samples;Min_cycle;Max_cycle;Signal;HPM_P1;HPM_P2
2022/12/17 13:06:39;;;;;;;83.90;42.35;;;0.10;99.90;;;;;;5082781;28;20494;-75
2022/12/17 13:09:25;;;;;;;87.57;41.00;;;0.10;99.90;;;;;;5105249;28;20424;-75
2022/12/17 13:12:02;;;;;;;87.97;41.42;;;0.10;99.90;;;;;;5070090;28;20425;-75
2022/12/17 13:14:45;;;;;;;86.67;40.80;;;0.10;99.90;;;;;;5081869;28;21014;-75
2022/12/17 13:17:14;;;;;;;88.57;42.03;;;0.10;99.90;;;;;;5082200;28;20432;-75
2022/12/17 13:20:02;;;;;;;86.65;42.00;;;0.10;99.90;;;;;;5078097;28;20435;-75
2022/12/17 13:22:30;;;;;;;83.35;41.13;;;0.10;99.90;;;;;;5073959;28;20513;-75
2022/12/17 13:25:14;;;;;;;86.28;42.28;;;0.00;99.90;;;;;;5084390;28;20433;-75
2022/12/17 13:27:40;;;;;;;88.30;42.47;;;0.10;99.90;;;;;;5080224;28;20465;-75
2022/12/17 13:30:20;;;;;;;87.22;42.60;;;0.10;99.90;;;;;;5071036;28;20985;-74
2022/12/17 13:33:01;;;;;;;86.57;42.00;;;0.10;99.90;;;;;;5071468;28;20442;-75
2022/12/17 13:35:31;;;;;;;86.20;42.03;;;0.10;99.90;;;;;;5072070;28;20974;-75
2022/12/17 13:38:42;;;;;;;89.68;43.90;;;0.10;99.90;;;;;;5086342;28;20527;-73
2022/12/17 13:41:09;;;;;;;90.63;43.90;;;0.10;99.90;;;;;;5078780;28;20467;-73
2022/12/17 13:43:46;;;;;;;84.13;41.27;;;0.10;99.90;;;;;;5079287;28;20410;-73
2022/12/17 13:46:19;;;;;;;87.20;42.40;;;0.10;99.90;;;;;;5078940;28;20414;-73
2022/12/17 13:48:55;;;;;;;85.37;41.27;;;0.20;99.90;;;;;;5082629;28;20493;-74
2022/12/17 13:51:23;;;;;;;87.53;42.33;;;0.20;99.90;;;;;;5081440;28;20929;-73
2022/12/17 13:53:58;;;;;;;87.30;42.73;;;0.10;99.90;;;;;;5074564;28;20419;-73
2022/12/17 13:56:36;;;;;;;83.95;41.72;;;0.10;99.90;;;;;;5076362;28;20933;-73
2022/12/17 13:59:03;;;;;;;90.03;43.60;;;0.10;99.90;;;;;;5086354;28;20410;-73
2022/12/17 14:01:30;;;;;;;85.35;41.35;;;0.00;99.90;;;;;;5087089;28;20421;-73
2022/12/17 14:03:58;;;;;;;88.55;42.53;;;0.00;99.90;;;;;;5084739;28;20398;-73
2022/12/17 14:06:32;;;;;;;87.40;42.08;;;-0.10;99.90;;;;;;5072102;28;20469;-73
2022/12/17 14:08:58;;;;;;;86.10;41.45;;;-0.10;99.90;;;;;;5086368;28;20414;-73
2022/12/17 14:14:22;;;;;;;89.88;42.38;;;-0.10;99.90;;;;;;5080835;28;20465;-70
2022/12/17 14:16:47;;;;;;;85.63;41.38;;;-0.10;99.90;;;;;;5060539;28;20509;-73
2022/12/17 14:19:13;;;;;;;88.50;42.70;;;-0.10;99.90;;;;;;5087061;28;20511;-73
2022/12/17 14:21:40;;;;;;;93.20;43.27;;;-0.10;99.90;;;;;;5082772;28;20777;-73
2022/12/17 14:24:09;;;;;;;89.78;43.85;;;-0.10;99.90;;;;;;5080852;28;20411;-73
2022/12/17 14:26:45;;;;;;;91.35;44.28;;;0.00;99.90;;;;;;5075456;28;20402;-73
2022/12/17 14:29:13;;;;;;;89.82;42.97;;;-0.10;99.90;;;;;;5073361;28;20428;-73
2022/12/17 14:31:51;;;;;;;85.57;41.80;;;-0.10;99.90;;;;;;5069875;28;20499;-73
2022/12/17 14:34:17;;;;;;;87.28;42.10;;;-0.10;99.90;;;;;;5073540;28;20407;-73
2022/12/17 14:36:43;;;;;;;86.53;41.83;;;-0.10;99.90;;;;;;5081407;28;20980;-74
2022/12/17 14:39:29;;;;;;;83.20;41.38;;;-0.20;99.90;;;;;;5074124;28;20915;-74
2022/12/17 14:44:52;;;;;;;91.60;43.95;;;-0.30;99.90;;;;;;5077870;28;20458;-74
2022/12/17 14:47:27;;;;;;;87.32;42.65;;;-0.30;99.90;;;;;;5070490;28;20475;-75
2022/12/17 14:49:59;;;;;;;93.83;43.83;;;-0.30;99.90;;;;;;5071123;28;20793;-74
2022/12/17 14:52:37;;;;;;;96.07;45.03;;;-0.30;99.90;;;;;;5074698;28;20470;-74
2022/12/17 14:55:22;;;;;;;90.22;44.03;;;-0.40;99.90;;;;;;5075460;28;20412;-74
2022/12/17 14:57:49;;;;;;;97.53;46.78;;;-0.40;99.90;;;;;;5077332;28;20477;-74
2022/12/17 15:00:14;;;;;;;102.13;46.65;;;-0.50;99.90;;;;;;5073190;28;20403;-74
2022/12/17 15:02:42;;;;;;;95.47;46.10;;;-0.50;99.90;;;;;;5086849;28;20413;-74
2022/12/17 15:05:13;;;;;;;94.75;43.63;;;-0.50;99.90;;;;;;5077750;28;20421;-74
2022/12/17 15:07:39;;;;;;;95.18;43.75;;;-0.60;99.90;;;;;;5083729;28;20550;-74
2022/12/17 15:10:17;;;;;;;97.43;43.80;;;-0.60;99.90;;;;;;5081626;28;20510;-74
2022/12/17 15:12:43;;;;;;;96.80;43.70;;;-0.60;99.90;;;;;;5082231;28;20433;-74
2022/12/17 15:15:13;;;;;;;93.93;43.53;;;-0.70;99.90;;;;;;5074499;28;20529;-74
2022/12/17 15:17:39;;;;;;;97.03;43.80;;;-0.70;99.90;;;;;;5087762;28;20399;-75
2022/12/17 15:20:05;;;;;;;96.93;43.28;;;-0.70;99.90;;;;;;5084218;28;20433;-74
2022/12/17 15:22:31;;;;;;;93.53;42.97;;;-0.80;99.90;;;;;;5079784;28;20409;-74
2022/12/17 15:24:56;;;;;;;99.35;44.13;;;-0.80;99.90;;;;;;5072445;28;20493;-74
2022/12/17 15:27:22;;;;;;;90.07;40.90;;;-0.80;99.90;;;;;;5083639;28;20773;-74
2022/12/17 15:29:48;;;;;;;99.38;42.38;;;-0.80;99.90;;;;;;5080919;28;20421;-74
2022/12/17 15:32:22;;;;;;;99.87;43.03;;;-0.80;99.90;;;;;;5087060;28;20406;-74
2022/12/17 15:34:49;;;;;;;99.10;41.63;;;-0.80;99.90;;;;;;5078937;28;20501;-74
2022/12/17 15:37:15;;;;;;;98.20;43.47;;;-0.80;99.90;;;;;;5083294;28;21008;-75
2022/12/17 15:39:41;;;;;;;104.72;44.25;;;-0.80;99.90;;;;;;5084626;28;20390;-75
2022/12/17 15:44:53;;;;;;;97.55;42.90;;;-0.80;99.90;;;;;;5084094;28;20416;-74
2022/12/17 15:47:18;;;;;;;97.93;42.13;;;-0.80;99.90;;;;;;5079331;28;20427;-74
2022/12/17 15:49:44;;;;;;;104.07;44.47;;;-0.80;99.90;;;;;;5067325;28;21584;-74
2022/12/17 15:52:13;;;;;;;94.63;41.27;;;-0.80;99.90;;;;;;5086644;28;20420;-73
2022/12/17 15:54:42;;;;;;;90.77;40.23;;;-0.80;99.90;;;;;;5071358;28;20439;-73
2022/12/17 15:57:09;;;;;;;90.85;41.38;;;-0.80;99.90;;;;;;5086253;28;20405;-74
2022/12/17 15:59:34;;;;;;;96.70;39.80;;;-0.80;99.90;;;;;;5078310;28;20427;-74
2022/12/17 16:02:00;;;;;;;97.07;41.03;;;-0.80;99.90;;;;;;5078675;28;20408;-74
2022/12/17 16:04:26;;;;;;;94.00;39.10;;;-0.80;99.90;;;;;;5082198;28;20420;-74
2022/12/17 16:06:51;;;;;;;89.75;38.72;;;-0.80;99.90;;;;;;5081163;28;20444;-74
2022/12/17 16:09:17;;;;;;;89.35;37.78;;;-0.90;99.90;;;;;;5084174;28;20630;-74
2022/12/17 16:11:43;;;;;;;89.43;38.83;;;-0.90;99.90;;;;;;5079384;28;20790;-74
2022/12/17 16:14:08;;;;;;;92.40;39.05;;;-0.90;99.90;;;;;;5089648;28;20803;-74
2022/12/17 16:16:34;;;;;;;93.60;39.27;;;-1.00;99.90;;;;;;5072300;28;20431;-74
2022/12/17 16:19:00;;;;;;;90.37;39.53;;;-1.00;99.90;;;;;;5080830;28;20919;-74
2022/12/17 16:21:27;;;;;;;97.43;40.53;;;-1.00;99.90;;;;;;5085739;28;20402;-74
2022/12/17 16:23:53;;;;;;;96.40;39.50;;;-1.00;99.90;;;;;;5093639;28;20541;-74
2022/12/17 16:26:18;;;;;;;101.80;39.38;;;-1.00;99.90;;;;;;5079040;28;20977;-74
2022/12/17 16:28:44;;;;;;;99.07;40.55;;;-1.00;99.90;;;;;;5074618;28;20399;-74
2022/12/17 16:31:13;;;;;;;100.47;39.83;;;-1.10;99.90;;;;;;5076015;28;20435;-74
2022/12/17 16:33:41;;;;;;;103.22;40.58;;;-1.00;99.90;;;;;;5077645;28;20420;-74
2022/12/17 16:36:07;;;;;;;103.43;40.73;;;-1.00;99.90;;;;;;5082863;28;20924;-74
2022/12/17 16:38:34;;;;;;;107.50;40.30;;;-1.00;99.90;;;;;;5074265;28;20439;-74
2022/12/17 16:41:02;;;;;;;113.37;40.93;;;-1.10;99.90;;;;;;5072063;28;20801;-74
2022/12/17 16:43:33;;;;;;;109.10;38.63;;;-1.00;99.90;;;;;;5081160;28;20417;-74
2022/12/17 16:45:58;;;;;;;107.25;37.90;;;-1.10;99.90;;;;;;5087826;28;20410;-74
2022/12/17 16:48:24;;;;;;;104.47;39.05;;;-1.00;99.90;;;;;;5082368;28;20521;-74
2022/12/17 16:50:50;;;;;;;112.80;39.58;;;-1.00;99.90;;;;;;5086437;28;20410;-74
2022/12/17 16:53:17;;;;;;;107.63;37.47;;;-1.10;99.90;;;;;;5079830;28;20917;-74
2022/12/17 16:55:45;;;;;;;98.95;37.88;;;-1.10;99.90;;;;;;5085630;28;20598;-74
2022/12/17 16:58:11;;;;;;;108.10;37.25;;;-1.10;99.90;;;;;;5079649;28;20945;-74
2022/12/17 17:00:36;;;;;;;109.45;37.67;;;-1.10;99.90;;;;;;5081007;28;20414;-74
2022/12/17 17:03:03;;;;;;;113.67;37.37;;;-1.10;99.90;;;;;;5084137;28;20411;-74
2022/12/17 17:05:37;;;;;;;110.68;38.15;;;-1.20;99.90;;;;;;5085373;28;20489;-74
2022/12/17 17:08:04;;;;;;;113.28;39.00;;;-1.20;99.90;;;;;;5085672;28;20427;-74
2022/12/17 17:10:30;;;;;;;110.97;39.33;;;-1.20;99.90;;;;;;5072982;28;20388;-74
2022/12/17 17:12:55;;;;;;;106.80;38.13;;;-1.30;99.90;;;;;;5079500;28;20405;-74
2022/12/17 17:15:22;;;;;;;111.63;37.23;;;-1.30;99.90;;;;;;5087938;28;20440;-74
2022/12/17 17:17:48;;;;;;;106.40;36.92;;;-1.30;99.90;;;;;;5083863;28;20436;-74
2022/12/17 17:20:14;;;;;;;110.72;38.35;;;-1.30;99.90;;;;;;5089360;28;20418;-73
2022/12/17 17:22:40;;;;;;;105.00;36.40;;;-1.30;99.90;;;;;;5103525;28;20400;-73
2022/12/17 17:25:07;;;;;;;108.60;38.77;;;-1.30;99.90;;;;;;5083157;28;20410;-74
2022/12/17 17:27:32;;;;;;;108.68;37.50;;;-1.30;99.90;;;;;;5081433;28;20472;-74
2022/12/17 17:29:58;;;;;;;98.73;37.47;;;-1.30;99.90;;;;;;5081515;28;20435;-74
2022/12/17 17:32:24;;;;;;;98.47;35.77;;;-1.40;99.90;;;;;;5083325;28;20418;-74
2022/12/17 17:34:50;;;;;;;105.97;35.63;;;-1.40;99.90;;;;;;5085628;28;20774;-74
2022/12/17 17:37:16;;;;;;;119.10;38.13;;;-1.40;99.90;;;;;;5081435;28;20420;-74
2022/12/17 17:39:41;;;;;;;112.65;37.00;;;-1.40;99.90;;;;;;5081205;28;20467;-74
2022/12/17 17:42:07;;;;;;;114.45;37.80;;;-1.40;99.90;;;;;;5089444;28;20878;-74
2022/12/17 17:44:33;;;;;;;114.20;38.25;;;-1.40;99.90;;;;;;5085499;28;20476;-74
2022/12/17 17:46:59;;;;;;;115.15;38.50;;;-1.40;99.90;;;;;;5089766;28;20482;-74
2022/12/17 17:49:25;;;;;;;118.00;37.23;;;-1.50;99.90;;;;;;5089305;28;20413;-73
2022/12/17 17:51:50;;;;;;;112.80;37.23;;;-1.50;99.90;;;;;;5081364;28;20448;-74
2022/12/17 17:54:16;;;;;;;114.93;37.55;;;-1.50;99.90;;;;;;5077528;28;20559;-74
2022/12/17 17:56:42;;;;;;;118.40;38.43;;;-1.50;99.90;;;;;;5089179;28;20828;-74
2022/12/17 17:59:11;;;;;;;111.50;37.17;;;-1.50;99.90;;;;;;5087880;28;20523;-73
2022/12/17 18:01:39;;;;;;;115.57;37.90;;;-1.50;99.90;;;;;;5089550;28;20398;-74
2022/12/17 18:04:08;;;;;;;116.40;37.55;;;-1.60;99.90;;;;;;5089516;28;20493;-74
2022/12/17 18:06:39;;;;;;;123.25;37.85;;;-1.60;99.90;;;;;;5088213;28;20897;-74
2022/12/17 18:09:05;;;;;;;121.28;37.63;;;-1.60;99.90;;;;;;5083980;28;20407;-74
2022/12/17 18:11:31;;;;;;;124.45;39.15;;;-1.60;99.90;;;;;;5082291;28;20409;-74
2022/12/17 18:13:59;;;;;;;129.05;39.85;;;-1.60;99.90;;;;;;5088325;28;20413;-74
2022/12/17 18:16:29;;;;;;;118.90;38.85;;;-1.60;99.90;;;;;;5088669;28;20435;-74
2022/12/17 18:18:57;;;;;;;122.45;38.40;;;-1.60;99.90;;;;;;5085180;28;20838;-74
2022/12/17 18:21:24;;;;;;;115.22;38.42;;;-1.60;99.90;;;;;;5082836;28;20395;-74
2022/12/17 18:24:22;;;;;;;113.32;37.88;;;-1.60;99.90;;;;;;5088902;28;20481;-74
2022/12/17 18:26:50;;;;;;;112.28;38.63;;;-1.60;99.90;;;;;;5072762;28;20499;-74
2022/12/17 18:29:21;;;;;;;115.90;39.13;;;-1.70;99.90;;;;;;5087679;28;20410;-73
2022/12/17 18:31:48;;;;;;;117.57;40.25;;;-1.60;99.90;;;;;;5083286;28;20416;-73
2022/12/17 18:34:15;;;;;;;114.70;38.35;;;-1.70;99.90;;;;;;5088453;28;20397;-74
2022/12/17 18:36:42;;;;;;;120.53;39.67;;;-1.70;99.90;;;;;;5088419;28;20815;-74
2022/12/17 18:39:11;;;;;;;118.15;39.50;;;-1.70;99.90;;;;;;5078526;28;20402;-74
2022/12/17 18:44:22;;;;;;;116.72;40.75;;;-1.70;99.90;;;;;;5084632;28;20443;-74
2022/12/17 18:46:48;;;;;;;126.30;42.35;;;-1.70;99.90;;;;;;5082230;28;20767;-74
2022/12/17 18:49:15;;;;;;;129.38;43.45;;;-1.60;99.90;;;;;;5081774;28;20414;-73
2022/12/17 18:51:43;;;;;;;139.07;46.25;;;-1.70;99.90;;;;;;5087988;28;20796;-73
2022/12/17 18:54:13;;;;;;;122.53;42.58;;;-1.70;99.90;;;;;;5074673;28;20417;-74
2022/12/17 18:56:40;;;;;;;131.57;42.63;;;-1.70;99.90;;;;;;5088054;28;20839;-74
2022/12/17 18:59:05;;;;;;;130.88;44.25;;;-1.70;99.90;;;;;;5076123;28;20487;-73
2022/12/17 19:01:33;;;;;;;130.47;43.13;;;-1.70;99.90;;;;;;5087092;28;20448;-74
2022/12/17 19:04:08;;;;;;;133.73;45.60;;;-1.70;99.90;;;;;;5088009;28;20402;-74
2022/12/17 19:06:36;;;;;;;129.75;44.72;;;-1.70;99.90;;;;;;5087206;28;21095;-74
2022/12/17 19:09:03;;;;;;;137.82;47.85;;;-1.70;99.90;;;;;;5085165;28;20415;-74
2022/12/17 19:11:28;;;;;;;126.90;45.20;;;-1.70;99.90;;;;;;5077385;28;20493;-73
2022/12/17 19:13:54;;;;;;;120.30;43.13;;;-1.70;99.90;;;;;;5086718;28;20953;-74
2022/12/17 19:16:22;;;;;;;124.40;43.70;;;-1.70;99.90;;;;;;5087388;28;20952;-73
2022/12/17 19:18:52;;;;;;;134.05;47.25;;;-1.70;99.90;;;;;;5087543;28;20410;-74
2022/12/17 19:21:18;;;;;;;128.75;46.45;;;-1.70;99.90;;;;;;5075807;28;20404;-74
2022/12/17 19:23:44;;;;;;;122.38;46.80;;;-1.70;99.90;;;;;;5087811;28;20856;-74
2022/12/17 19:26:13;;;;;;;122.83;44.83;;;-1.70;99.90;;;;;;5086305;28;20432;-74
2022/12/17 19:28:44;;;;;;;119.37;45.67;;;-1.70;99.90;;;;;;5085917;28;20410;-74
2022/12/17 19:31:10;;;;;;;114.63;45.88;;;-1.70;99.90;;;;;;5076949;28;20906;-74
2022/12/17 19:33:36;;;;;;;115.13;44.78;;;-1.70;99.90;;;;;;5086474;28;20408;-73
2022/12/17 19:36:07;;;;;;;108.95;45.60;;;-1.80;99.90;;;;;;5077342;28;20435;-73
2022/12/17 19:38:33;;;;;;;111.93;44.50;;;-1.80;99.90;;;;;;5069179;28;20413;-74
2022/12/17 19:41:08;;;;;;;104.43;43.95;;;-1.80;99.90;;;;;;5073525;28;20408;-73
2022/12/17 19:43:33;;;;;;;109.30;43.95;;;-1.80;99.90;;;;;;5082429;28;20757;-74
2022/12/17 19:46:07;;;;;;;109.80;43.67;;;-1.90;99.90;;;;;;5071676;28;20411;-74
2022/12/17 19:48:35;;;;;;;115.13;45.78;;;-1.90;99.90;;;;;;5085560;28;20564;-74
2022/12/17 19:51:03;;;;;;;115.13;47.05;;;-1.90;99.90;;;;;;5087069;28;20402;-74
2022/12/17 19:53:29;;;;;;;117.07;45.78;;;-1.90;99.90;;;;;;5086665;28;20398;-74
2022/12/17 19:55:57;;;;;;;117.07;46.22;;;-1.90;99.90;;;;;;5086648;28;20501;-74
2022/12/17 19:58:23;;;;;;;110.23;45.27;;;-1.90;99.90;;;;;;5086636;28;20467;-73
2022/12/17 20:00:50;;;;;;;112.70;45.97;;;-1.90;99.90;;;;;;5087003;28;20394;-73
2022/12/17 20:03:16;;;;;;;112.38;47.05;;;-1.90;99.90;;;;;;5087728;28;20394;-73
2022/12/17 20:05:44;;;;;;;108.22;46.40;;;-1.90;99.90;;;;;;5086915;28;20931;-73
2022/12/17 20:08:10;;;;;;;117.20;46.57;;;-1.90;99.90;;;;;;5086986;28;20406;-73
2022/12/17 20:10:35;;;;;;;109.27;46.53;;;-1.90;99.90;;;;;;5087063;28;20900;-73
2022/12/17 20:13:01;;;;;;;114.10;47.53;;;-1.90;99.90;;;;;;5085054;28;20421;-73
2022/12/17 20:15:28;;;;;;;111.00;47.93;;;-1.90;99.90;;;;;;5082603;28;20506;-73
2022/12/17 20:17:54;;;;;;;111.95;47.47;;;-1.90;99.90;;;;;;5085391;28;20406;-73
2022/12/17 20:20:19;;;;;;;109.15;46.70;;;-1.90;99.90;;;;;;5069200;28;20433;-73
2022/12/17 20:22:45;;;;;;;120.43;48.50;;;-1.90;99.90;;;;;;5085801;28;20398;-73
2022/12/17 20:25:10;;;;;;;110.37;45.37;;;-1.90;99.90;;;;;;5062115;28;20915;-74
2022/12/17 20:27:37;;;;;;;112.32;46.85;;;-1.90;99.90;;;;;;5077783;28;20750;-74
2022/12/17 20:30:04;;;;;;;115.15;49.00;;;-1.90;99.90;;;;;;5084315;28;20927;-73
2022/12/17 20:32:30;;;;;;;121.55;49.90;;;-1.90;99.90;;;;;;5077823;28;20931;-73
2022/12/17 20:34:55;;;;;;;129.80;53.17;;;-1.90;99.90;;;;;;5085380;28;20466;-73
2022/12/17 20:37:21;;;;;;;124.78;51.42;;;-1.90;99.90;;;;;;5078684;28;20540;-73
2022/12/17 20:39:47;;;;;;;131.40;52.30;;;-1.90;99.90;;;;;;5086053;28;20386;-73
2022/12/17 20:42:12;;;;;;;126.73;50.77;;;-1.80;99.90;;;;;;5081262;28;20832;-73
2022/12/17 20:44:38;;;;;;;126.75;52.30;;;-1.80;99.90;;;;;;5078720;28;20477;-73
2022/12/17 20:47:04;;;;;;;123.75;51.50;;;-1.80;99.90;;;;;;5082377;28;20835;-73
2022/12/17 20:49:30;;;;;;;125.83;51.43;;;-1.80;99.90;;;;;;5086887;28;20397;-73
2022/12/17 20:51:56;;;;;;;117.20;50.10;;;-1.80;99.90;;;;;;5081556;28;20424;-70
2022/12/17 20:54:21;;;;;;;121.30;49.43;;;-1.80;99.90;;;;;;5066249;28;20461;-69
2022/12/17 20:56:47;;;;;;;109.78;47.50;;;-1.90;99.90;;;;;;5066663;28;20428;-72
2022/12/17 20:59:15;;;;;;;114.43;48.28;;;-1.90;99.90;;;;;;5082115;28;20398;-73
2022/12/17 21:01:42;;;;;;;113.30;48.70;;;-1.90;99.90;;;;;;5073312;28;20459;-73
2022/12/17 21:04:10;;;;;;;123.13;50.45;;;-1.90;99.90;;;;;;5085839;28;20777;-73
2022/12/17 21:06:40;;;;;;;122.82;50.20;;;-1.90;99.90;;;;;;5073512;28;20411;-74
2022/12/17 21:09:06;;;;;;;130.38;52.20;;;-2.00;99.90;;;;;;5073461;28;20424;-74
2022/12/17 21:11:34;;;;;;;139.85;53.30;;;-2.00;99.90;;;;;;5071905;28;20922;-73
2022/12/17 21:14:13;;;;;;;131.98;52.65;;;-2.00;99.90;;;;;;5083583;28;20396;-73
2022/12/17 21:16:39;;;;;;;143.00;56.15;;;-2.00;99.90;;;;;;5070258;28;20436;-74
2022/12/17 21:19:06;;;;;;;143.55;54.97;;;-2.00;99.90;;;;;;5070235;28;21237;-73
2022/12/17 21:21:35;;;;;;;140.02;54.53;;;-2.00;99.90;;;;;;5074005;28;20414;-73
2022/12/17 21:24:01;;;;;;;134.82;53.25;;;-2.00;99.90;;;;;;5076560;28;20534;-73
2022/12/17 21:26:32;;;;;;;137.02;53.25;;;-2.00;99.90;;;;;;5073819;28;20503;-73
2022/12/17 21:28:59;;;;;;;128.20;50.15;;;-2.00;99.90;;;;;;5073859;28;20951;-73
2022/12/17 21:31:28;;;;;;;134.93;52.28;;;-2.10;99.90;;;;;;5069113;28;20456;-73
2022/12/17 21:33:56;;;;;;;129.90;52.78;;;-2.10;99.90;;;;;;5070148;28;20454;-73
2022/12/17 21:36:22;;;;;;;128.95;51.13;;;-2.10;99.90;;;;;;5069455;28;21011;-73
2022/12/17 21:38:49;;;;;;;129.18;52.22;;;-2.10;99.90;;;;;;5072053;28;20558;-73
2022/12/17 21:41:18;;;;;;;123.45;51.58;;;-2.10;99.90;;;;;;5075456;28;20775;-73
2022/12/17 21:43:44;;;;;;;138.88;53.47;;;-2.10;99.90;;;;;;5071612;28;20396;-74
2022/12/17 21:46:11;;;;;;;134.65;51.08;;;-2.10;99.90;;;;;;5069287;28;20403;-74
2022/12/17 21:48:39;;;;;;;142.15;54.28;;;-2.10;99.90;;;;;;5080742;28;20412;-74
2022/12/17 21:51:07;;;;;;;134.93;52.72;;;-2.10;99.90;;;;;;5074118;28;20408;-73
2022/12/17 21:53:33;;;;;;;133.13;52.10;;;-2.10;99.90;;;;;;5081269;28;20511;-73
2022/12/17 21:56:04;;;;;;;123.50;49.10;;;-2.10;99.90;;;;;;5075640;28;20500;-73
2022/12/17 21:58:29;;;;;;;117.50;46.92;;;-2.10;99.90;;;;;;5080065;28;20431;-73
2022/12/17 22:00:55;;;;;;;127.10;50.83;;;-2.10;99.90;;;;;;5080830;28;20749;-74
2022/12/17 22:03:20;;;;;;;125.70;51.27;;;-2.10;99.90;;;;;;5076024;28;20398;-74
2022/12/17 22:05:46;;;;;;;129.73;49.97;;;-2.10;99.90;;;;;;5084418;28;20422;-74
2022/12/17 22:08:12;;;;;;;125.57;49.47;;;-2.10;99.90;;;;;;5081839;28;20417;-74
2022/12/17 22:10:41;;;;;;;120.97;49.00;;;-2.10;99.90;;;;;;5081520;28;20396;-74
2022/12/17 22:15:55;;;;;;;131.00;51.78;;;-2.20;99.90;;;;;;5067923;28;20442;-74
2022/12/17 22:18:20;;;;;;;128.55;50.65;;;-2.20;99.90;;;;;;5058687;28;20457;-74
2022/12/17 22:20:59;;;;;;;134.23;51.75;;;-2.20;99.90;;;;;;5078433;28;20964;-74
2022/12/17 22:23:25;;;;;;;136.82;52.50;;;-2.20;99.90;;;;;;5081083;28;20920;-74
2022/12/17 22:25:50;;;;;;;137.23;52.22;;;-2.20;99.90;;;;;;5077869;28;20462;-74
2022/12/17 22:28:16;;;;;;;133.00;52.05;;;-2.20;99.90;;;;;;5080298;28;20426;-73
2022/12/17 22:33:26;;;;;;;136.57;53.17;;;-2.10;99.90;;;;;;5077832;28;20413;-73
2022/12/17 22:35:51;;;;;;;127.43;49.70;;;-2.10;99.90;;;;;;5069118;28;20431;-74
2022/12/17 22:38:17;;;;;;;133.63;51.47;;;-2.10;99.90;;;;;;5068994;28;20395;-73
2022/12/17 22:40:43;;;;;;;139.32;51.50;;;-2.20;99.90;;;;;;5074587;28;20822;-73
2022/12/17 22:43:28;;;;;;;141.07;52.37;;;-2.20;99.90;;;;;;5087873;28;20412;-73
2022/12/17 22:46:02;;;;;;;142.38;54.08;;;-2.20;99.90;;;;;;5077562;28;20514;-73
2022/12/17 22:48:29;;;;;;;145.90;52.20;;;-2.20;99.90;;;;;;5071000;28;20409;-73
2022/12/17 22:50:55;;;;;;;151.68;54.25;;;-2.20;99.90;;;;;;5082279;28;20496;-73
2022/12/17 22:53:22;;;;;;;148.18;53.53;;;-2.20;99.90;;;;;;5077429;28;20411;-73
2022/12/17 22:55:48;;;;;;;148.95;53.03;;;-2.20;99.90;;;;;;5087180;28;20892;-73
2022/12/17 22:58:14;;;;;;;138.35;51.92;;;-2.20;99.90;;;;;;5082915;28;20765;-73
2022/12/17 23:00:39;;;;;;;135.52;49.33;;;-2.20;99.90;;;;;;5087988;28;20398;-73
2022/12/17 23:03:05;;;;;;;124.03;47.20;;;-2.20;99.90;;;;;;5069098;28;20408;-73
2022/12/17 23:05:31;;;;;;;121.07;46.67;;;-2.30;99.90;;;;;;5069136;28;20396;-73
2022/12/17 23:07:57;;;;;;;115.38;47.03;;;-2.30;99.90;;;;;;5073409;28;20484;-73
2022/12/17 23:10:24;;;;;;;120.28;45.42;;;-2.30;99.90;;;;;;5088073;28;20532;-73
2022/12/17 23:12:52;;;;;;;124.13;47.88;;;-2.40;99.90;;;;;;5068077;28;20404;-74
2022/12/17 23:15:33;;;;;;;126.55;47.35;;;-2.40;99.90;;;;;;5068241;28;20431;-74
2022/12/17 23:18:00;;;;;;;120.18;46.58;;;-2.40;99.90;;;;;;5078509;28;20411;-71
2022/12/17 23:20:28;;;;;;;133.40;49.83;;;-2.40;99.90;;;;;;5073234;28;20484;-72
2022/12/17 23:22:54;;;;;;;134.80;48.60;;;-2.40;99.90;;;;;;5082729;28;20432;-73
2022/12/17 23:25:21;;;;;;;135.02;49.50;;;-2.40;99.90;;;;;;5081468;28;21317;-73
2022/12/17 23:27:47;;;;;;;135.82;50.45;;;-2.50;99.90;;;;;;5069097;28;20423;-74
2022/12/17 23:30:14;;;;;;;144.10;50.75;;;-2.50;99.90;;;;;;5074204;28;20400;-74
2022/12/17 23:32:40;;;;;;;143.32;50.20;;;-2.40;99.90;;;;;;5072500;28;20426;-73
2022/12/17 23:35:07;;;;;;;143.57;51.47;;;-2.40;99.90;;;;;;5067848;28;20396;-73
2022/12/17 23:37:34;;;;;;;145.60;53.10;;;-2.50;99.90;;;;;;5079629;28;20409;-74
2022/12/17 23:39:59;;;;;;;129.95;48.13;;;-2.50;99.90;;;;;;5075406;28;20388;-73
2022/12/17 23:42:25;;;;;;;120.13;46.93;;;-2.50;99.90;;;;;;5078204;28;20773;-74
2022/12/17 23:44:51;;;;;;;114.50;45.53;;;-2.50;99.90;;;;;;5074267;28;20395;-73
2022/12/17 23:47:16;;;;;;;145.82;49.35;;;-2.50;99.90;;;;;;5066936;28;20404;-74
2022/12/17 23:49:42;;;;;;;150.97;51.60;;;-2.50;99.90;;;;;;5073479;28;20395;-74
2022/12/17 23:52:07;;;;;;;154.32;53.13;;;-2.50;99.90;;;;;;5072964;28;20411;-74
2022/12/17 23:54:33;;;;;;;153.68;53.15;;;-2.50;99.90;;;;;;5070778;28;20415;-74
2022/12/17 23:56:59;;;;;;;147.77;51.97;;;-2.50;99.90;;;;;;5069197;28;20430;-74
2022/12/17 23:59:24;;;;;;;140.90;50.40;;;-2.40;99.90;;;;;;5068964;28;20767;-74
